Nashville, Pennsylvania
Current Conditions -  °F | °C
As of 4:53 PM on Tuesday 21 Oct 2014 (Local Time) from KTHV Reporting Station
Broken Clouds Broken Clouds  
Wind Chill: 62°   Ceiling: 10000
Heat Index: 62°   Visibility: 10mi
Dew Point: 46°   Wind: 5mph
Humidity: 56%   Direction: 340°NNW
Pressure: 29.83"   Gusts: NA
Location:  39.853°N, 76.8779°W
Report Text: KTHV 212053Z AUTO 34004KT 10SM FEW065 BKN100 17/08 A2983 RMK AO2 LTG DSNT W SLP102 T01670078 55001
Loading
Personal Weather Stations






























Interactive Weather Map
Tropical Storm Tracking
New forecast layout! Learn more

10-Day Weather Forecast

Advertisements
Track Severe Weather on mobile